Time;durP1;ratioP1;P1;durP2;ratioP2;P2;SDS_P1;SDS_P2;PMS_P1;PMS_P2;Temp;Humidity;BMP_temperature;BMP_pressure;BME280_temperature;BME280_humidity;BME280_pressure;Samples;Min_cycle;Max_cycle;Signal;HPM_P1;HPM_P2
2023/05/25 00:00:14;;;;;;;15.68;6.80;;;;;;;-146.25;100.00;52291.16;2079588;28;20049;-69
2023/05/25 00:01:18;;;;;;;20.45;6.28;;;;;;;-146.25;100.00;52289.13;2079999;28;32079;-70
2023/05/25 00:02:23;;;;;;;14.82;5.35;;;;;;;-146.25;100.00;52307.38;2087633;28;32188;-69
2023/05/25 00:03:26;;;;;;;15.10;5.55;;;;;;;-146.25;100.00;52347.91;2087885;28;32462;-70
2023/05/25 00:04:33;;;;;;;14.07;6.43;;;;;;;-146.25;100.00;52343.88;2087937;28;34949;-69
2023/05/25 00:05:35;;;;;;;15.00;6.13;;;;;;;-146.25;100.00;52331.69;2088393;28;31491;-70
2023/05/25 00:06:39;;;;;;;18.88;7.20;;;;;;;-146.25;100.00;52307.38;2088216;28;34142;-70
2023/05/25 00:07:44;;;;;;;18.95;7.07;;;;;;;-146.25;100.00;52311.44;2087598;28;32548;-70
2023/05/25 00:08:46;;;;;;;16.75;6.18;;;;;;;-146.25;100.00;52319.53;2079094;28;32564;-69
2023/05/25 00:09:48;;;;;;;12.02;5.40;;;;;;;-146.25;100.00;52295.19;2079791;28;39477;-70
2023/05/25 00:10:50;;;;;;;17.35;6.57;;;;;;;-146.25;100.00;52331.69;2087770;28;34922;-70
2023/05/25 00:11:52;;;;;;;17.30;6.28;;;;;;;-146.25;100.00;52323.59;2088091;28;35465;-70
2023/05/25 00:12:56;;;;;;;15.73;7.43;;;;;;;-146.25;100.00;52364.13;2088555;28;20906;-70
2023/05/25 00:13:58;;;;;;;17.55;6.60;;;;;;;-146.25;100.00;52307.38;2088608;28;35206;-70
2023/05/25 00:15:02;;;;;;;18.70;6.78;;;;;;;-146.25;100.00;52331.69;2088104;28;33728;-69
2023/05/25 00:16:05;;;;;;;17.17;6.70;;;;;;;-146.25;100.00;52345.91;2079207;28;28816;-69
2023/05/25 00:17:09;;;;;;;17.75;7.10;;;;;;;-146.25;100.00;52319.53;2079728;28;32997;-70
2023/05/25 00:18:11;;;;;;;14.90;6.20;;;;;;;-146.25;100.00;52319.53;2087154;28;36909;-70
2023/05/25 00:19:14;;;;;;;13.07;6.10;;;;;;;-146.25;100.00;52317.50;2087811;28;33513;-70
2023/05/25 00:20:16;;;;;;;18.88;6.88;;;;;;;-146.25;100.00;52315.47;2087619;28;37607;-70
2023/05/25 00:21:19;;;;;;;16.73;6.50;;;;;;;-146.25;100.00;52305.34;2087543;28;32078;-70
2023/05/25 00:22:21;;;;;;;18.08;7.68;;;;;;;-146.25;100.00;52327.66;2079180;28;34815;-69
2023/05/25 00:23:22;;;;;;;17.08;7.07;;;;;;;-146.25;100.00;52335.75;2079019;28;35623;-70
2023/05/25 00:24:24;;;;;;;19.90;6.63;;;;;;;-146.25;100.00;52313.44;2079989;28;20038;-69
2023/05/25 00:25:26;;;;;;;23.33;8.30;;;;;;;-146.25;100.00;52343.88;2079129;28;34762;-70
2023/05/25 00:26:30;;;;;;;21.77;8.43;;;;;;;-146.25;100.00;52307.38;2088277;28;33510;-70
2023/05/25 00:27:34;;;;;;;25.30;9.13;;;;;;;-146.25;100.00;52362.13;2088219;28;21796;-70
2023/05/25 00:28:36;;;;;;;15.73;7.22;;;;;;;-146.25;100.00;52327.66;2088227;28;20220;-70
2023/05/25 00:29:37;;;;;;;16.25;7.10;;;;;;;-146.25;100.00;52333.72;2088266;28;20126;-70
2023/05/25 00:30:44;;;;;;;17.90;6.72;;;;;;;-146.25;100.00;52317.50;2088548;28;20159;-70
2023/05/25 00:31:46;;;;;;;19.52;7.38;;;;;;;-146.25;100.00;52319.53;2087686;28;24763;-70
2023/05/25 00:32:50;;;;;;;13.75;6.53;;;;;;;-146.25;100.00;52339.81;2087518;28;27030;-70
2023/05/25 00:33:52;;;;;;;22.73;8.50;;;;;;;-146.25;100.00;52325.63;2086699;28;27334;-70
2023/05/25 00:34:54;;;;;;;19.75;7.28;;;;;;;-146.25;100.00;52289.13;2087578;28;26367;-70
2023/05/25 00:35:58;;;;;;;18.63;8.38;;;;;;;-146.25;100.00;52315.47;2087056;28;30845;-69
2023/05/25 00:37:00;;;;;;;21.02;8.18;;;;;;;-146.25;100.00;52262.75;2078939;28;33884;-69
2023/05/25 00:38:02;;;;;;;21.20;8.60;;;;;;;-146.25;100.00;52315.47;2079017;28;26924;-70
2023/05/25 00:39:03;;;;;;;23.20;9.27;;;;;;;-146.25;100.00;52311.44;2079601;28;20303;-70
2023/05/25 00:40:11;;;;;;;19.65;8.60;;;;;;;-146.25;100.00;52329.66;2086725;28;25619;-70
2023/05/25 00:41:16;;;;;;;28.42;9.13;;;;;;;-146.25;100.00;52307.38;2086210;28;30182;-69
2023/05/25 00:42:18;;;;;;;18.73;9.02;;;;;;;-146.25;100.00;52291.16;2086800;28;20831;-70
2023/05/25 00:43:20;;;;;;;21.10;7.97;;;;;;;-146.25;100.00;52268.84;2079479;28;20041;-70
2023/05/25 00:44:22;;;;;;;20.80;8.57;;;;;;;-146.25;100.00;52329.66;2080608;28;24978;-70
2023/05/25 00:45:23;;;;;;;20.48;8.45;;;;;;;-146.25;100.00;52343.88;2080849;28;30027;-70
2023/05/25 00:46:26;;;;;;;19.98;8.35;;;;;;;-146.25;100.00;52329.66;2089130;28;27869;-69
2023/05/25 00:47:28;;;;;;;22.98;9.13;;;;;;;-146.25;100.00;52345.91;2080924;28;20753;-70
2023/05/25 00:48:31;;;;;;;21.05;8.70;;;;;;;-146.25;100.00;52301.28;2080648;28;28499;-70
2023/05/25 00:49:36;;;;;;;24.38;10.63;;;;;;;-146.25;100.00;52285.06;2089476;28;30767;-69
2023/05/25 00:50:44;;;;;;;21.50;7.95;;;;;;;-146.25;100.00;52354.00;2089517;28;21976;-70
2023/05/25 00:51:46;;;;;;;19.98;8.50;;;;;;;-146.25;100.00;52323.59;2080673;28;20287;-70
2023/05/25 00:52:48;;;;;;;22.90;8.48;;;;;;;-146.25;100.00;52319.53;2080124;28;32424;-70
2023/05/25 00:53:50;;;;;;;22.63;8.80;;;;;;;-146.25;100.00;52307.38;2080597;28;33113;-70
2023/05/25 00:54:59;;;;;;;20.60;7.93;;;;;;;-146.25;100.00;52295.19;2080599;28;20050;-70
2023/05/25 00:56:21;;;;;;;15.95;8.75;;;;;;;-146.25;100.00;52305.34;2073638;28;36952;-70
2023/05/25 00:57:25;;;;;;;25.00;9.55;;;;;;;-146.25;100.00;52309.41;2084501;28;32928;-70
2023/05/25 00:58:31;;;;;;;19.17;8.95;;;;;;;-146.25;100.00;52337.78;2088988;28;37588;-70
2023/05/25 00:59:45;;;;;;;21.88;9.10;;;;;;;-146.25;100.00;52260.72;2089663;28;20045;-68
2023/05/25 01:00:49;;;;;;;15.57;8.40;;;;;;;-146.25;100.00;52333.72;2089056;28;24950;-70
2023/05/25 01:01:54;;;;;;;18.73;8.77;;;;;;;-146.25;100.00;52331.69;2080459;28;28650;-69
2023/05/25 01:03:03;;;;;;;22.20;8.77;;;;;;;-146.25;100.00;52307.38;2079979;28;27655;-69
2023/05/25 01:04:09;;;;;;;18.98;8.60;;;;;;;-146.25;100.00;52317.50;2080738;28;27919;-70
2023/05/25 01:05:16;;;;;;;25.08;9.20;;;;;;;-146.25;100.00;52327.66;2080740;28;20045;-69
2023/05/25 01:06:21;;;;;;;22.67;8.65;;;;;;;-146.25;100.00;52331.69;2079490;28;26338;-69
2023/05/25 01:07:25;;;;;;;23.08;9.60;;;;;;;-146.25;100.00;52335.75;2080529;28;29062;-70
2023/05/25 01:08:30;;;;;;;24.45;9.20;;;;;;;-146.25;100.00;52335.75;2081809;28;20859;-70
2023/05/25 01:09:33;;;;;;;20.17;8.68;;;;;;;-146.25;100.00;52341.84;2080399;28;32817;-70
2023/05/25 01:10:39;;;;;;;24.05;9.40;;;;;;;-146.25;100.00;52311.44;2071984;28;26768;-70
2023/05/25 01:11:48;;;;;;;20.38;8.77;;;;;;;-146.25;100.00;52303.31;2072460;28;20871;-70
2023/05/25 01:12:54;;;;;;;20.83;9.98;;;;;;;-146.25;100.00;52333.72;2074674;28;29302;-70
2023/05/25 01:13:57;;;;;;;24.48;10.35;;;;;;;-146.25;100.00;52335.75;2080217;28;24088;-70
2023/05/25 01:15:02;;;;;;;19.00;9.82;;;;;;;-146.25;100.00;52305.34;2081534;28;20049;-70
2023/05/25 01:16:06;;;;;;;25.58;9.90;;;;;;;-146.25;100.00;52289.13;2080018;28;29508;-69
2023/05/25 01:17:09;;;;;;;22.67;10.50;;;;;;;-146.25;100.00;52319.53;2080716;28;25387;-70
2023/05/25 01:18:16;;;;;;;22.10;9.73;;;;;;;-146.25;100.00;52333.72;2088725;28;22330;-69
2023/05/25 01:19:18;;;;;;;21.67;9.18;;;;;;;-146.25;100.00;52293.19;2080799;28;20973;-70
2023/05/25 01:20:20;;;;;;;24.02;9.35;;;;;;;-146.25;100.00;52303.31;2080361;28;20909;-69
2023/05/25 01:21:40;;;;;;;18.27;8.68;;;;;;;-146.25;100.00;52366.16;2080313;28;25963;-70
2023/05/25 01:22:55;;;;;;;29.05;10.23;;;;;;;-146.25;100.00;52358.06;2086250;28;31637;-69
2023/05/25 01:24:21;;;;;;;17.73;8.45;;;;;;;-146.25;100.00;52372.25;2082641;28;20045;-70
2023/05/25 01:25:35;;;;;;;22.23;9.27;;;;;;;-146.25;100.00;52291.16;2084384;28;20116;-69
2023/05/25 01:26:53;;;;;;;20.35;8.63;;;;;;;-146.25;100.00;52339.81;2087165;28;20152;-70
2023/05/25 01:28:06;;;;;;;23.27;9.90;;;;;;;-146.25;100.00;52325.63;2086092;28;24520;-71
2023/05/25 01:29:10;;;;;;;18.00;9.27;;;;;;;-146.25;100.00;52313.44;2083579;28;20088;-69
2023/05/25 01:30:18;;;;;;;24.25;9.63;;;;;;;-146.25;100.00;52347.91;2074332;28;20042;-69
2023/05/25 01:31:22;;;;;;;19.67;9.00;;;;;;;-146.25;100.00;52323.59;2088677;28;20080;-69
2023/05/25 01:32:25;;;;;;;18.77;8.20;;;;;;;-146.25;100.00;52327.66;2088171;28;22668;-69
2023/05/25 01:33:28;;;;;;;24.92;9.85;;;;;;;-146.25;100.00;52283.03;2089004;28;20084;-72
2023/05/25 01:34:31;;;;;;;24.73;9.68;;;;;;;-146.25;100.00;52337.78;2080167;28;26026;-69
2023/05/25 01:35:35;;;;;;;19.40;8.82;;;;;;;-146.25;100.00;52339.81;2080545;28;20046;-70
2023/05/25 01:36:38;;;;;;;17.45;9.18;;;;;;;-146.25;100.00;52272.91;2080742;28;20092;-69
2023/05/25 01:37:46;;;;;;;19.17;9.70;;;;;;;-146.25;100.00;52323.59;2080348;28;25849;-69
2023/05/25 01:38:48;;;;;;;21.48;10.23;;;;;;;-146.25;100.00;52301.28;2080422;28;30290;-69
2023/05/25 01:39:50;;;;;;;25.55;10.00;;;;;;;-146.25;100.00;52307.38;2080884;28;27183;-69
2023/05/25 01:40:52;;;;;;;23.50;9.95;;;;;;;-146.25;100.00;52325.63;2088739;28;21010;-69
2023/05/25 01:41:56;;;;;;;18.90;9.45;;;;;;;-146.25;100.00;52335.75;2080375;28;24099;-69
2023/05/25 01:42:58;;;;;;;20.25;9.60;;;;;;;-146.25;100.00;52323.59;2080527;28;27056;-70
2023/05/25 01:44:01;;;;;;;24.20;10.73;;;;;;;-146.25;100.00;52331.69;2088991;28;20072;-69
2023/05/25 01:45:07;;;;;;;22.88;10.50;;;;;;;-146.25;100.00;52339.81;2080089;28;27051;-68
2023/05/25 01:46:25;;;;;;;24.23;10.73;;;;;;;-146.25;100.00;52311.44;2073146;28;23026;-69
2023/05/25 01:47:49;;;;;;;20.40;10.35;;;;;;;-146.25;100.00;52313.44;2078166;28;20042;-68
2023/05/25 01:49:41;;;;;;;26.05;10.27;;;;;;;-146.25;100.00;52333.72;2088973;28;26021;-69
2023/05/25 01:50:58;;;;;;;19.80;9.50;;;;;;;-146.25;100.00;52315.47;2089214;28;27710;-69
2023/05/25 01:52:15;;;;;;;21.40;9.93;;;;;;;-146.25;100.00;52358.06;2088659;28;32022;-69
2023/05/25 01:53:51;;;;;;;20.60;10.05;;;;;;;-146.25;100.00;52317.50;2080192;28;20038;-70
2023/05/25 01:55:07;;;;;;;18.10;8.77;;;;;;;-146.25;100.00;52309.41;2080361;28;24346;-70
2023/05/25 01:56:13;;;;;;;22.02;9.60;;;;;;;-146.25;100.00;52325.63;2077333;28;20962;-69
2023/05/25 01:57:17;;;;;;;20.75;10.40;;;;;;;-146.25;100.00;52331.69;2073904;28;33486;-70
2023/05/25 01:58:21;;;;;;;18.00;8.90;;;;;;;-146.25;100.00;52305.34;2080542;28;20092;-69
2023/05/25 01:59:25;;;;;;;19.33;9.43;;;;;;;-146.25;100.00;52319.53;2064903;28;20046;-70
2023/05/25 02:00:32;;;;;;;20.38;10.57;;;;;;;-146.25;100.00;52331.69;2074557;28;20234;-70
2023/05/25 02:01:38;;;;;;;22.20;9.73;;;;;;;-146.25;100.00;52337.78;2080547;28;20046;-69
2023/05/25 02:02:44;;;;;;;19.27;8.93;;;;;;;-146.25;100.00;52307.38;2080832;28;20041;-70
2023/05/25 02:03:47;;;;;;;25.77;10.15;;;;;;;-146.25;100.00;52309.41;2081249;28;20053;-70
2023/05/25 02:04:56;;;;;;;22.48;10.75;;;;;;;-146.25;100.00;52331.69;2081668;28;20042;-70
2023/05/25 02:05:58;;;;;;;19.05;8.93;;;;;;;-146.25;100.00;52321.56;2080227;28;38448;-70
2023/05/25 02:07:02;;;;;;;18.80;9.90;;;;;;;-146.25;100.00;52327.66;2071850;28;20119;-70
2023/05/25 02:08:04;;;;;;;20.50;9.40;;;;;;;-146.25;100.00;52315.47;2081424;28;20994;-70
2023/05/25 02:09:08;;;;;;;19.40;9.82;;;;;;;-146.25;100.00;52325.63;2088409;28;20982;-70
2023/05/25 02:10:10;;;;;;;18.48;9.80;;;;;;;-146.25;100.00;52303.31;2089186;28;20148;-70
2023/05/25 02:11:13;;;;;;;25.13;10.50;;;;;;;-146.25;100.00;52339.81;2097700;28;21049;-70
2023/05/25 02:12:17;;;;;;;19.00;10.68;;;;;;;-146.25;100.00;52333.72;2097538;28;23250;-70
2023/05/25 02:13:24;;;;;;;20.77;9.98;;;;;;;-146.25;100.00;52331.69;2088350;28;20050;-70
2023/05/25 02:14:25;;;;;;;23.20;10.13;;;;;;;-146.25;100.00;52303.31;2081072;28;21638;-68
2023/05/25 02:15:32;;;;;;;19.52;10.23;;;;;;;-146.25;100.00;52317.50;2081033;28;20041;-70
2023/05/25 02:16:34;;;;;;;18.40;9.85;;;;;;;-146.25;100.00;52319.53;2072765;28;20918;-70
2023/05/25 02:17:36;;;;;;;19.60;10.68;;;;;;;-146.25;100.00;52307.38;2080704;28;20061;-69
2023/05/25 02:18:38;;;;;;;24.92;10.88;;;;;;;-146.25;100.00;52262.75;2088617;28;20874;-70
2023/05/25 02:19:40;;;;;;;24.15;11.35;;;;;;;-146.25;100.00;52315.47;2088847;28;20898;-70
2023/05/25 02:20:43;;;;;;;22.20;10.68;;;;;;;-146.25;100.00;52301.28;2079875;28;29472;-70
2023/05/25 02:21:45;;;;;;;23.90;11.40;;;;;;;-146.25;100.00;52289.13;2080334;28;20138;-70
2023/05/25 02:22:47;;;;;;;22.10;10.00;;;;;;;-146.25;100.00;52319.53;2096989;28;34272;-70
2023/05/25 02:23:52;;;;;;;29.38;13.07;;;;;;;-146.25;100.00;52276.97;2096911;28;28100;-70
2023/05/25 02:24:54;;;;;;;30.42;13.30;;;;;;;-146.25;100.00;52287.09;2096740;28;28398;-70
2023/05/25 02:25:56;;;;;;;25.08;12.48;;;;;;;-146.25;100.00;52339.81;2096735;28;25764;-70
2023/05/25 02:26:58;;;;;;;24.80;13.48;;;;;;;-146.25;100.00;52331.69;2088267;28;20037;-71
2023/05/25 02:28:04;;;;;;;30.30;12.02;;;;;;;-146.25;100.00;52291.16;2088579;28;20081;-70
2023/05/25 02:29:06;;;;;;;31.98;12.30;;;;;;;-146.25;100.00;52313.44;2072121;28;20531;-70
2023/05/25 02:30:08;;;;;;;23.75;12.20;;;;;;;-146.25;100.00;52331.69;2080797;28;20038;-70
2023/05/25 02:31:10;;;;;;;26.67;12.20;;;;;;;-146.25;100.00;52303.31;2096851;28;32561;-70
2023/05/25 02:32:11;;;;;;;30.65;11.98;;;;;;;-146.25;100.00;52303.31;2096956;28;21767;-70
2023/05/25 02:33:13;;;;;;;22.63;11.98;;;;;;;-146.25;100.00;52339.81;2097441;28;20085;-70
2023/05/25 02:34:15;;;;;;;21.92;12.25;;;;;;;-146.25;100.00;52333.72;2088428;28;25040;-70
2023/05/25 02:35:20;;;;;;;33.35;12.07;;;;;;;-146.25;100.00;52293.19;2079403;28;20683;-70
2023/05/25 02:36:23;;;;;;;23.20;11.38;;;;;;;-146.25;100.00;52311.44;2080814;28;24051;-70
2023/05/25 02:37:25;;;;;;;22.55;11.02;;;;;;;-146.25;100.00;52311.44;2087810;28;20888;-71
2023/05/25 02:38:26;;;;;;;27.50;12.10;;;;;;;-146.25;100.00;52345.91;2088789;28;20864;-70
2023/05/25 02:39:28;;;;;;;26.73;11.40;;;;;;;-146.25;100.00;52343.88;2097640;28;20036;-70
2023/05/25 02:40:32;;;;;;;22.73;11.85;;;;;;;-146.25;100.00;52293.19;2088334;28;20053;-70
2023/05/25 02:41:34;;;;;;;22.85;11.60;;;;;;;-146.25;100.00;52313.44;2079878;28;20876;-70
2023/05/25 02:42:36;;;;;;;29.38;13.88;;;;;;;-146.25;100.00;52323.59;2079611;28;24468;-68
2023/05/25 02:43:40;;;;;;;29.15;13.23;;;;;;;-146.25;100.00;52295.19;2080080;28;20046;-70
2023/05/25 02:44:47;;;;;;;28.73;14.10;;;;;;;-146.25;100.00;52311.44;2072120;28;34694;-69
2023/05/25 02:45:51;;;;;;;26.67;13.55;;;;;;;-146.25;100.00;52341.84;2074462;28;20143;-70
2023/05/25 02:46:53;;;;;;;28.27;13.85;;;;;;;-146.25;100.00;52315.47;2080112;28;20191;-72
2023/05/25 02:47:55;;;;;;;27.70;13.93;;;;;;;-146.25;100.00;52315.47;2079931;28;25479;-69
2023/05/25 02:48:58;;;;;;;28.23;12.70;;;;;;;-146.25;100.00;52311.44;2080414;28;20034;-69
2023/05/25 02:50:01;;;;;;;28.17;13.90;;;;;;;-146.25;100.00;52329.66;2080005;28;20038;-69
2023/05/25 02:51:28;;;;;;;25.67;12.65;;;;;;;-146.25;100.00;52319.53;2083413;28;20855;-72
2023/05/25 02:52:32;;;;;;;25.50;12.60;;;;;;;-146.25;100.00;52339.81;2084095;28;20046;-70
2023/05/25 02:53:36;;;;;;;26.08;12.95;;;;;;;-146.25;100.00;52317.50;2080048;28;20224;-71
2023/05/25 02:54:39;;;;;;;32.75;13.75;;;;;;;-146.25;100.00;52331.69;2080555;28;20049;-72
2023/05/25 02:55:42;;;;;;;26.15;13.70;;;;;;;-146.25;100.00;52287.09;2080401;28;20076;-70
2023/05/25 02:56:49;;;;;;;30.25;14.48;;;;;;;-146.25;100.00;52329.66;2088757;28;20034;-70
2023/05/25 02:57:51;;;;;;;32.85;13.27;;;;;;;-146.25;100.00;52311.44;2080018;28;20092;-70
2023/05/25 02:59:12;;;;;;;27.48;12.93;;;;;;;-146.25;100.00;52291.16;2082681;28;20973;-68
2023/05/25 03:00:14;;;;;;;27.00;13.25;;;;;;;-146.25;100.00;52343.88;2088284;28;21938;-71
2023/05/25 03:01:17;;;;;;;23.27;11.40;;;;;;;-146.25;100.00;52287.09;2087995;28;20037;-70
2023/05/25 03:02:24;;;;;;;24.35;12.63;;;;;;;-146.25;100.00;52299.25;2080849;28;20041;-72
2023/05/25 03:03:27;;;;;;;26.23;13.65;;;;;;;-146.25;100.00;52343.88;2079792;28;20050;-73
2023/05/25 03:04:33;;;;;;;27.98;13.68;;;;;;;-146.25;100.00;52272.91;2088189;28;20089;-72
2023/05/25 03:05:34;;;;;;;30.25;14.13;;;;;;;-146.25;100.00;52293.19;2088082;28;20042;-71
2023/05/25 03:06:36;;;;;;;23.80;12.20;;;;;;;-146.25;100.00;52317.50;2080266;28;20050;-70
2023/05/25 03:07:51;;;;;;;22.10;11.45;;;;;;;-146.25;100.00;52333.72;2081931;28;20115;-71
2023/05/25 03:08:53;;;;;;;26.77;12.52;;;;;;;-146.25;100.00;52301.28;2088280;28;20910;-71
2023/05/25 03:09:58;;;;;;;27.88;12.55;;;;;;;-146.25;100.00;52285.06;2088112;28;21032;-70
2023/05/25 03:11:03;;;;;;;27.85;12.93;;;;;;;-146.25;100.00;52287.09;2080002;28;20037;-71
2023/05/25 03:12:08;;;;;;;28.10;14.05;;;;;;;-146.25;100.00;52315.47;2080124;28;20045;-71
2023/05/25 03:13:10;;;;;;;23.77;12.95;;;;;;;-146.25;100.00;52321.56;2088651;28;21885;-70
2023/05/25 03:14:12;;;;;;;26.80;12.25;;;;;;;-146.25;100.00;52321.56;2087795;28;22105;-71
2023/05/25 03:15:15;;;;;;;25.67;13.52;;;;;;;-146.25;100.00;52315.47;2080318;28;20061;-71
2023/05/25 03:16:18;;;;;;;27.13;13.50;;;;;;;-146.25;100.00;52307.38;2079973;28;20049;-71
2023/05/25 03:17:19;;;;;;;27.52;14.38;;;;;;;-146.25;100.00;52323.59;2088518;28;20077;-71
2023/05/25 03:18:26;;;;;;;23.27;12.00;;;;;;;-146.25;100.00;52331.69;2087726;28;20041;-71
2023/05/25 03:19:28;;;;;;;29.42;13.13;;;;;;;-146.25;100.00;52307.38;2080768;28;20065;-71
2023/05/25 03:20:31;;;;;;;26.30;12.05;;;;;;;-146.25;100.00;52299.25;2088538;28;20037;-71
2023/05/25 03:21:33;;;;;;;26.85;12.10;;;;;;;-146.25;100.00;52323.59;2087674;28;29710;-71
2023/05/25 03:22:37;;;;;;;28.42;13.10;;;;;;;-146.25;100.00;52327.66;2087624;28;20037;-71
2023/05/25 03:23:39;;;;;;;23.48;12.20;;;;;;;-146.25;100.00;52317.50;2097355;28;20041;-73
2023/05/25 03:24:42;;;;;;;30.10;13.50;;;;;;;-146.25;100.00;52303.31;2087892;28;20038;-70
2023/05/25 03:25:44;;;;;;;26.40;13.60;;;;;;;-146.25;100.00;52323.59;2080061;28;20042;-72
2023/05/25 03:26:48;;;;;;;29.90;13.88;;;;;;;-146.25;100.00;52311.44;2079830;28;20046;-70
2023/05/25 03:27:55;;;;;;;25.33;12.70;;;;;;;-146.25;100.00;52309.41;2080520;28;20148;-71
2023/05/25 03:28:57;;;;;;;19.85;11.80;;;;;;;-146.25;100.00;52276.97;2072038;28;20046;-71
2023/05/25 03:30:00;;;;;;;35.10;14.82;;;;;;;-146.25;100.00;52321.56;2072411;28;22890;-70
2023/05/25 03:31:03;;;;;;;29.38;13.05;;;;;;;-146.25;100.00;52299.25;2079459;28;20054;-71
2023/05/25 03:32:05;;;;;;;22.92;12.02;;;;;;;-146.25;100.00;52307.38;2088069;28;20045;-70
2023/05/25 03:33:09;;;;;;;32.45;14.70;;;;;;;-146.25;100.00;52337.78;2087970;28;20076;-71
2023/05/25 03:34:17;;;;;;;24.00;13.88;;;;;;;-146.25;100.00;52289.13;2080419;28;20045;-71
2023/05/25 03:35:19;;;;;;;30.90;14.48;;;;;;;-146.25;100.00;52337.78;2079923;28;20038;-70
2023/05/25 03:36:26;;;;;;;34.63;15.82;;;;;;;-146.25;100.00;52317.50;2088017;28;20882;-70
2023/05/25 03:37:28;;;;;;;33.10;14.55;;;;;;;-146.25;100.00;52315.47;2088736;28;20072;-70
2023/05/25 03:38:29;;;;;;;25.50;13.27;;;;;;;-146.25;100.00;52291.16;2087595;28;28191;-71
2023/05/25 03:39:31;;;;;;;22.65;13.52;;;;;;;-146.25;100.00;52301.28;2088105;28;20046;-71
2023/05/25 03:40:33;;;;;;;31.60;13.18;;;;;;;-146.25;100.00;52323.59;2088099;28;20053;-71
2023/05/25 03:41:35;;;;;;;28.08;14.70;;;;;;;-146.25;100.00;52351.97;2087364;28;29113;-71
2023/05/25 03:42:39;;;;;;;24.90;13.52;;;;;;;-146.25;100.00;52327.66;2088192;28;20942;-71
2023/05/25 03:43:41;;;;;;;26.13;14.35;;;;;;;-146.25;100.00;52309.41;2071524;28;20046;-71
2023/05/25 03:44:44;;;;;;;28.65;14.07;;;;;;;-146.25;100.00;52315.47;2080516;28;20042;-71
2023/05/25 03:45:45;;;;;;;28.90;13.65;;;;;;;-146.25;100.00;52325.63;2087635;28;20046;-71
2023/05/25 03:46:50;;;;;;;25.52;12.77;;;;;;;-146.25;100.00;52349.94;2072187;28;20831;-71
2023/05/25 03:47:52;;;;;;;24.80;12.05;;;;;;;-146.25;100.00;52291.16;2080751;28;20034;-70
2023/05/25 03:48:55;;;;;;;20.98;11.88;;;;;;;-146.25;100.00;52276.97;2087976;28;20095;-70
2023/05/25 03:49:56;;;;;;;28.83;12.23;;;;;;;-146.25;100.00;52339.81;2087412;28;25784;-70
2023/05/25 03:50:59;;;;;;;26.67;13.23;;;;;;;-146.25;100.00;52331.69;2087651;28;20033;-71
2023/05/25 03:52:01;;;;;;;27.85;13.35;;;;;;;-146.25;100.00;52331.69;2078976;28;20819;-71
2023/05/25 03:53:03;;;;;;;25.55;12.98;;;;;;;-146.25;100.00;52323.59;2087678;28;21062;-71
2023/05/25 03:54:05;;;;;;;30.60;15.07;;;;;;;-146.25;100.00;52331.69;2095872;28;20037;-70
2023/05/25 03:55:07;;;;;;;35.47;16.73;;;;;;;-146.25;100.00;52321.56;2087612;28;20099;-70
2023/05/25 03:56:11;;;;;;;35.08;16.38;;;;;;;-146.25;100.00;52339.81;2087629;28;21826;-71
2023/05/25 03:57:13;;;;;;;27.67;15.10;;;;;;;-146.25;100.00;52331.69;2096361;28;26278;-71
2023/05/25 03:58:17;;;;;;;28.98;14.85;;;;;;;-146.25;100.00;52351.97;2096525;28;20839;-71
2023/05/25 03:59:20;;;;;;;27.48;14.38;;;;;;;-146.25;100.00;52307.38;2087484;28;20037;-71
2023/05/25 04:00:22;;;;;;;26.38;15.45;;;;;;;-146.25;100.00;52327.66;2087288;28;29744;-71
2023/05/25 04:01:25;;;;;;;27.40;14.82;;;;;;;-146.25;100.00;52345.91;2087967;28;20140;-71
2023/05/25 04:02:26;;;;;;;29.73;14.52;;;;;;;-146.25;100.00;52315.47;2087223;28;29689;-71
2023/05/25 04:03:31;;;;;;;27.48;16.05;;;;;;;-146.25;100.00;52347.91;2097155;28;20041;-71
2023/05/25 04:04:33;;;;;;;26.95;15.35;;;;;;;-146.25;100.00;52303.31;2097780;28;20914;-71
2023/05/25 04:05:35;;;;;;;23.85;14.05;;;;;;;-146.25;100.00;52315.47;2087672;28;25010;-71
2023/05/25 04:06:41;;;;;;;23.75;13.45;;;;;;;-146.25;100.00;52341.84;2087901;28;24210;-71
2023/05/25 04:07:43;;;;;;;28.83;15.48;;;;;;;-146.25;100.00;52313.44;2087501;28;20046;-71
2023/05/25 04:08:45;;;;;;;28.38;15.43;;;;;;;-146.25;100.00;52315.47;2087593;28;20046;-71
2023/05/25 04:09:49;;;;;;;31.38;15.98;;;;;;;-146.25;100.00;52309.41;2088452;28;20025;-71
2023/05/25 04:10:51;;;;;;;29.45;15.98;;;;;;;-146.25;100.00;52297.22;2087209;28;26150;-71
2023/05/25 04:11:52;;;;;;;24.00;14.10;;;;;;;-146.25;100.00;52283.03;2088320;28;20973;-71
2023/05/25 04:12:58;;;;;;;30.92;17.52;;;;;;;-146.25;100.00;52289.13;2087529;28;20037;-71
2023/05/25 04:14:00;;;;;;;30.80;15.43;;;;;;;-146.25;100.00;52283.03;2080268;28;20042;-71
2023/05/25 04:15:08;;;;;;;33.75;17.20;;;;;;;-146.25;100.00;52313.44;2080031;28;20034;-71
2023/05/25 04:16:22;;;;;;;31.80;15.85;;;;;;;-146.25;100.00;52305.34;2079492;28;20124;-71
2023/05/25 04:17:24;;;;;;;25.67;14.02;;;;;;;-146.25;100.00;52307.38;2073245;28;20104;-71
2023/05/25 04:18:27;;;;;;;26.45;14.73;;;;;;;-146.25;100.00;52291.16;2086601;28;20049;-71
2023/05/25 04:19:28;;;;;;;28.23;13.85;;;;;;;-146.25;100.00;52297.22;2096408;28;35561;-71
2023/05/25 04:20:30;;;;;;;31.27;15.63;;;;;;;-146.25;100.00;52297.22;2079714;28;20050;-71
2023/05/25 04:21:33;;;;;;;26.67;14.07;;;;;;;-146.25;100.00;52295.19;2070735;28;20050;-71
2023/05/25 04:22:37;;;;;;;28.80;14.98;;;;;;;-146.25;100.00;52309.41;2067844;28;20054;-71
2023/05/25 04:23:42;;;;;;;23.98;12.82;;;;;;;-146.25;100.00;52289.13;2072429;28;20034;-71
2023/05/25 04:24:45;;;;;;;28.52;15.05;;;;;;;-146.25;100.00;52325.63;2079495;28;20092;-71
2023/05/25 04:25:49;;;;;;;22.65;12.73;;;;;;;-146.25;100.00;52311.44;2079299;28;20093;-71
2023/05/25 04:26:52;;;;;;;21.83;12.43;;;;;;;-146.25;100.00;52347.91;2079149;28;20127;-71
2023/05/25 04:27:55;;;;;;;30.55;15.13;;;;;;;-146.25;100.00;52303.31;2080016;28;23769;-71
2023/05/25 04:29:16;;;;;;;21.08;12.77;;;;;;;-146.25;100.00;52333.72;2079325;28;20097;-71
2023/05/25 04:30:44;;;;;;;21.38;13.48;;;;;;;-146.25;100.00;52307.38;2056760;28;20048;-71
2023/05/25 04:32:01;;;;;;;27.88;14.50;;;;;;;-146.25;100.00;52313.44;2088066;28;20037;-72
2023/05/25 04:33:28;;;;;;;21.08;11.70;;;;;;;-146.25;100.00;52319.53;2079071;28;20089;-71
2023/05/25 04:34:36;;;;;;;15.93;9.07;;;;;;;-146.25;100.00;52327.66;2072476;28;20827;-71
2023/05/25 04:35:50;;;;;;;14.23;9.75;;;;;;;-146.25;100.00;52281.00;2072621;28;20165;-71
2023/05/25 04:36:53;;;;;;;28.13;13.70;;;;;;;-146.25;100.00;52335.75;2079723;28;20116;-71
2023/05/25 04:37:56;;;;;;;19.00;11.60;;;;;;;-146.25;100.00;52333.72;2079252;28;20080;-71
2023/05/25 04:39:03;;;;;;;27.27;14.20;;;;;;;-146.25;100.00;52321.56;2079805;28;20159;-71
2023/05/25 04:40:12;;;;;;;23.13;14.68;;;;;;;-146.25;100.00;52343.88;2087801;28;20050;-71
2023/05/25 04:41:16;;;;;;;21.30;14.27;;;;;;;-146.25;100.00;52333.72;2079064;28;20035;-71
2023/05/25 04:42:23;;;;;;;20.83;13.95;;;;;;;-146.25;100.00;52278.97;2072103;28;20042;-71
2023/05/25 04:43:28;;;;;;;18.48;11.57;;;;;;;-146.25;100.00;52333.72;2071895;28;20046;-71
2023/05/25 04:44:32;;;;;;;19.25;11.40;;;;;;;-146.25;100.00;52299.25;2071376;28;20049;-71
2023/05/25 04:45:34;;;;;;;17.58;8.98;;;;;;;-146.25;100.00;52317.50;2074636;28;20057;-71
2023/05/25 04:46:37;;;;;;;13.13;8.50;;;;;;;-146.25;100.00;52372.25;2079247;28;20038;-71
2023/05/25 04:47:41;;;;;;;17.58;8.85;;;;;;;-146.25;100.00;52339.81;2078411;28;20042;-71
2023/05/25 04:48:45;;;;;;;14.60;8.50;;;;;;;-146.25;100.00;52378.34;2079488;28;20128;-70
2023/05/25 04:49:47;;;;;;;12.80;7.90;;;;;;;-146.25;100.00;52345.91;2071259;28;20082;-69